Terminal Aerodrome Forecast
Issued by NWS

Home | Current Version | Previous Version | Text Only | Print | Product List | Glossary On
Versions: 1 2 3 4 5 6 7 8 9 10 11 12 13
639
FTUS46 KSTO 251736 AAB
TAFMHR
TAF AMD
KMHR 251736Z 2518/2618 20013KT P6SM OVC015
     FM252000 20011KT P6SM SCT035
     FM261400 VRB04KT P6SM BKN030=

USA.gov is the U.S. government's official web portal to all federal, state and local government web resources and services.